Time;durP1;ratioP1;P1;durP2;ratioP2;P2;SDS_P1;SDS_P2;PMS_P1;PMS_P2;Temp;Humidity;BMP_temperature;BMP_pressure;BME280_temperature;BME280_humidity;BME280_pressure;Samples;Min_cycle;Max_cycle;Signal;HPM_P1;HPM_P2
2022/12/08 00:02:06;;;;;;;4.32;2.25;;;;;;;2.29;100.00;100530.28;6222588;28;20050;-72
2022/12/08 00:11:46;;;;;;;4.10;2.42;;;;;;;2.25;100.00;100526.03;6222408;28;20053;-71
2022/12/08 00:14:48;;;;;;;4.68;2.53;;;;;;;2.24;100.00;100528.69;6222391;28;20050;-72
2022/12/08 00:17:51;;;;;;;3.05;2.50;;;;;;;2.22;100.00;100523.50;6222634;28;20499;-73
2022/12/08 00:20:55;;;;;;;3.17;2.33;;;;;;;2.24;100.00;100519.16;6222261;28;20058;-72
2022/12/08 00:23:56;;;;;;;5.40;2.92;;;;;;;2.22;100.00;100512.28;6222061;28;20414;-72
2022/12/08 00:26:57;;;;;;;6.10;3.22;;;;;;;2.24;100.00;100508.78;6222272;28;20054;-72
2022/12/08 00:29:59;;;;;;;2.42;1.95;;;;;;;2.23;100.00;100504.50;6222320;28;20453;-72
2022/12/08 00:33:02;;;;;;;3.53;2.42;;;;;;;2.27;100.00;100500.06;6222209;28;20046;-72
2022/12/08 00:36:06;;;;;;;4.18;2.53;;;;;;;2.23;100.00;100501.91;6222339;28;20056;-72
2022/12/08 00:39:08;;;;;;;2.42;2.00;;;;;;;2.17;100.00;100501.19;6222116;28;20254;-72
2022/12/08 00:42:12;;;;;;;3.17;2.47;;;;;;;2.14;100.00;100489.16;6221977;28;20052;-72
2022/12/08 00:45:13;;;;;;;7.32;2.88;;;;;;;2.15;100.00;100492.59;6222000;28;20107;-72
2022/12/08 00:48:16;;;;;;;6.20;3.22;;;;;;;2.03;100.00;100488.53;6221950;28;20061;-71
2022/12/08 00:51:17;;;;;;;6.10;2.65;;;;;;;2.06;100.00;100485.03;6222210;28;20100;-72
2022/12/08 00:54:19;;;;;;;12.18;2.42;;;;;;;2.08;100.00;100485.84;6221667;28;20457;-72
2022/12/08 00:57:21;;;;;;;6.20;3.63;;;;;;;2.13;100.00;100482.25;6222193;28;20498;-72
2022/12/08 01:00:22;;;;;;;6.63;2.97;;;;;;;2.15;100.00;100479.63;6221548;28;20050;-72
2022/12/08 01:03:25;;;;;;;10.93;2.70;;;;;;;2.11;100.00;100486.63;6222101;28;20045;-72
2022/12/08 01:06:26;;;;;;;5.68;3.35;;;;;;;2.08;100.00;100483.25;6221713;28;20049;-71
2022/12/08 01:09:28;;;;;;;11.02;3.10;;;;;;;2.13;100.00;100473.63;6221898;28;20065;-72
2022/12/08 01:12:30;;;;;;;7.60;3.42;;;;;;;2.14;100.00;100471.00;6221662;28;20046;-72
2022/12/08 01:15:31;;;;;;;6.15;3.22;;;;;;;2.13;100.00;100468.44;6221459;28;20054;-72
2022/12/08 01:18:35;;;;;;;5.10;2.78;;;;;;;2.16;100.00;100471.81;6226227;28;20417;-72
2022/12/08 01:21:36;;;;;;;8.13;3.80;;;;;;;2.15;100.00;100469.25;6226105;28;20053;-71
2022/12/08 01:24:38;;;;;;;5.20;2.88;;;;;;;2.18;100.00;100470.06;6226393;28;20541;-71
2022/12/08 01:27:39;;;;;;;5.18;3.55;;;;;;;2.21;100.00;100463.94;6226148;28;20053;-71
2022/12/08 01:30:41;;;;;;;7.00;3.45;;;;;;;2.26;100.00;100467.25;6226257;28;20050;-72
2022/12/08 01:33:44;;;;;;;5.75;3.28;;;;;;;2.26;100.00;100460.31;6225963;28;20042;-72
2022/12/08 01:36:46;;;;;;;5.57;3.50;;;;;;;2.24;100.00;100459.53;6226141;28;20060;-72
2022/12/08 01:39:48;;;;;;;6.15;3.60;;;;;;;2.25;100.00;100455.19;6225704;28;20557;-72
2022/12/08 01:42:49;;;;;;;7.63;3.15;;;;;;;2.21;100.00;100459.59;6226062;28;20050;-72
2022/12/08 01:45:51;;;;;;;7.05;3.00;;;;;;;2.27;100.00;100450.81;6225666;28;20413;-72
2022/12/08 01:49:01;;;;;;;13.32;4.03;;;;;;;2.22;100.00;100452.66;6225625;28;20050;-72
2022/12/08 01:52:09;;;;;;;5.78;3.70;;;;;;;2.25;100.00;100453.44;6225550;28;20049;-72
2022/12/08 01:55:16;;;;;;;10.88;3.78;;;;;;;2.25;100.00;100455.19;6225454;28;20046;-72
2022/12/08 01:58:22;;;;;;;9.32;4.85;;;;;;;2.24;100.00;100453.50;6225486;28;20056;-71
2022/12/08 02:01:24;;;;;;;10.85;4.35;;;;;;;2.23;100.00;100444.03;6225306;28;20053;-72
2022/12/08 02:04:27;;;;;;;9.13;4.45;;;;;;;2.23;100.00;100447.47;6225425;28;20045;-72
2022/12/08 02:07:28;;;;;;;8.63;3.72;;;;;;;2.20;100.00;100449.28;6225284;28;20065;-72
2022/12/08 02:10:33;;;;;;;14.15;4.75;;;;;;;2.19;100.00;100453.59;6224922;28;20073;-72
2022/12/08 02:13:35;;;;;;;6.78;3.63;;;;;;;2.11;100.00;100450.34;6225158;28;20042;-72
2022/12/08 02:16:43;;;;;;;8.65;4.45;;;;;;;2.12;100.00;100443.41;6224945;28;20421;-72
2022/12/08 02:20:13;;;;;;;7.20;4.10;;;;;;;2.11;100.00;100439.97;6224978;28;20061;-72
2022/12/08 02:23:27;;;;;;;4.90;3.05;;;;;;;2.05;100.00;100439.28;6225154;28;20046;-71
2022/12/08 02:26:55;;;;;;;7.40;4.57;;;;;;;2.09;100.00;100433.09;6224766;28;20065;-72
2022/12/08 02:30:20;;;;;;;7.05;4.22;;;;;;;2.04;100.00;100435.81;6224631;28;20054;-72
2022/12/08 02:33:55;;;;;;;7.68;5.85;;;;;;;2.06;100.00;100428.88;6224838;28;20508;-72
2022/12/08 02:37:07;;;;;;;7.07;4.18;;;;;;;2.08;100.00;100428.81;6224577;28;20045;-72
2022/12/08 02:40:20;;;;;;;6.80;4.38;;;;;;;2.08;100.00;100429.66;6224545;28;20054;-72
2022/12/08 02:43:29;;;;;;;9.25;4.93;;;;;;;1.96;100.00;100428.22;6224914;28;20050;-71
2022/12/08 02:46:35;;;;;;;6.68;4.20;;;;;;;1.97;100.00;100424.75;6224383;28;20050;-72
2022/12/08 02:49:38;;;;;;;8.35;5.00;;;;;;;2.03;100.00;100416.81;6224443;28;20050;-72
2022/12/08 02:52:42;;;;;;;9.82;3.92;;;;;;;2.01;100.00;100409.97;6224245;28;20068;-72
2022/12/08 02:55:56;;;;;;;9.70;4.10;;;;;;;2.07;100.00;100412.41;6224270;28;20494;-72
2022/12/08 02:59:11;;;;;;;8.68;4.55;;;;;;;1.98;100.00;100410.88;6223928;28;20053;-72
2022/12/08 03:02:34;;;;;;;8.30;4.25;;;;;;;2.07;100.00;100412.41;6224316;28;20046;-72
2022/12/08 03:05:54;;;;;;;7.82;4.57;;;;;;;1.98;100.00;100416.06;6223771;28;20050;-72
2022/12/08 03:09:00;;;;;;;6.95;3.58;;;;;;;2.03;100.00;100408.19;6223956;28;20552;-72
2022/12/08 03:12:09;;;;;;;7.97;3.70;;;;;;;1.98;100.00;100400.53;6223564;28;20053;-71
2022/12/08 03:15:15;;;;;;;8.07;3.95;;;;;;;1.98;100.00;100395.34;6223820;28;20050;-72
2022/12/08 03:18:19;;;;;;;8.13;4.30;;;;;;;2.05;100.00;100384.84;6223626;28;20057;-72
2022/12/08 03:21:22;;;;;;;6.97;4.03;;;;;;;2.11;100.00;100382.94;6223397;28;20446;-72
2022/12/08 03:24:24;;;;;;;6.25;3.67;;;;;;;2.12;100.00;100376.03;6223366;28;20501;-72
2022/12/08 03:27:28;;;;;;;14.15;3.88;;;;;;;2.12;100.00;100378.59;6222579;28;20050;-72
2022/12/08 03:30:34;;;;;;;7.25;3.38;;;;;;;2.10;100.00;100375.22;6223222;28;20497;-72
2022/12/08 03:33:40;;;;;;;6.40;3.17;;;;;;;2.15;100.00;100373.34;6223390;28;20054;-72
2022/12/08 03:36:44;;;;;;;6.35;3.47;;;;;;;2.15;100.00;100366.44;6223570;28;20048;-72
2022/12/08 03:39:45;;;;;;;9.38;4.65;;;;;;;2.18;100.00;100363.78;6222552;28;20061;-72
2022/12/08 03:42:47;;;;;;;6.15;3.25;;;;;;;2.23;100.00;100361.06;6223135;28;20417;-72
2022/12/08 03:45:48;;;;;;;6.47;3.53;;;;;;;2.18;100.00;100357.72;6223092;28;20060;-72
2022/12/08 03:48:50;;;;;;;7.07;4.22;;;;;;;2.18;100.00;100349.94;6222929;28;20050;-72
2022/12/08 03:51:52;;;;;;;8.50;4.03;;;;;;;2.21;100.00;100344.69;6223053;28;20046;-73
2022/12/08 03:54:54;;;;;;;15.27;4.65;;;;;;;2.27;100.00;100352.28;6222878;28;20077;-73
2022/12/08 03:57:55;;;;;;;13.48;5.25;;;;;;;2.28;100.00;100354.88;6223035;28;20056;-72
2022/12/08 04:00:57;;;;;;;11.25;4.78;;;;;;;2.27;100.00;100348.00;6222466;28;20057;-72
2022/12/08 04:03:58;;;;;;;9.25;4.55;;;;;;;2.27;100.00;100337.63;6222807;28;20532;-72
2022/12/08 04:07:01;;;;;;;6.15;3.55;;;;;;;2.24;100.00;100327.31;6222694;28;20049;-72
2022/12/08 04:10:03;;;;;;;7.57;4.47;;;;;;;2.26;100.00;100312.56;6222582;28;20050;-72
2022/12/08 04:13:04;;;;;;;9.85;5.18;;;;;;;2.29;100.00;100319.41;6222621;28;20057;-72
2022/12/08 04:16:06;;;;;;;9.13;5.15;;;;;;;2.31;100.00;100321.97;6222343;28;20056;-72
2022/12/08 04:19:08;;;;;;;7.32;5.03;;;;;;;2.39;100.00;100317.44;6222517;28;20056;-72
2022/12/08 04:22:11;;;;;;;13.40;6.57;;;;;;;2.39;100.00;100314.84;6222186;28;20050;-73
2022/12/08 04:25:12;;;;;;;8.68;5.22;;;;;;;2.32;100.00;100321.94;6222395;28;20072;-72
2022/12/08 04:28:14;;;;;;;9.27;5.78;;;;;;;2.32;100.00;100313.28;6222187;28;20050;-72
2022/12/08 04:31:15;;;;;;;11.30;5.75;;;;;;;2.24;100.00;100316.09;6222315;28;20057;-72
2022/12/08 04:34:17;;;;;;;11.82;6.68;;;;;;;2.25;100.00;100315.19;6221996;28;20073;-73
2022/12/08 04:37:19;;;;;;;12.05;5.43;;;;;;;2.24;100.00;100324.72;6222504;28;20054;-72
2022/12/08 04:40:21;;;;;;;14.18;7.03;;;;;;;2.19;100.00;100315.38;6222022;28;20049;-72
2022/12/08 04:43:22;;;;;;;10.32;6.07;;;;;;;2.05;100.00;100320.91;6222279;28;20046;-71
2022/12/08 04:46:24;;;;;;;13.70;5.72;;;;;;;1.88;100.00;100320.47;6221917;28;20053;-72
2022/12/08 04:49:25;;;;;;;10.23;6.00;;;;;;;1.82;100.00;100316.28;6221829;28;20135;-73
2022/12/08 04:52:28;;;;;;;13.05;7.82;;;;;;;1.77;100.00;100316.41;6224640;28;20056;-73
2022/12/08 04:55:30;;;;;;;11.63;5.47;;;;;;;1.80;100.00;100314.63;6226895;28;20050;-74
2022/12/08 04:58:31;;;;;;;11.75;6.80;;;;;;;1.81;100.00;100316.31;6226754;28;20506;-74
2022/12/08 05:01:32;;;;;;;8.95;5.43;;;;;;;1.81;100.00;100306.81;6226638;28;20061;-73
2022/12/08 05:04:34;;;;;;;10.07;6.05;;;;;;;1.86;100.00;100310.13;6226820;28;20088;-73
2022/12/08 05:07:37;;;;;;;15.90;6.47;;;;;;;1.91;100.00;100312.63;6226668;28;20050;-72
2022/12/08 05:10:39;;;;;;;11.25;6.13;;;;;;;1.95;100.00;100301.28;6226631;28;20050;-72
2022/12/08 05:13:40;;;;;;;11.70;7.38;;;;;;;1.95;100.00;100309.94;6226581;28;20045;-72
2022/12/08 05:16:42;;;;;;;11.68;6.47;;;;;;;1.96;100.00;100303.84;6226701;28;20046;-72
2022/12/08 05:19:43;;;;;;;14.88;5.95;;;;;;;1.99;100.00;100298.56;6226333;28;20085;-72
2022/12/08 05:22:46;;;;;;;12.73;6.53;;;;;;;2.03;100.00;100304.53;6226378;28;20053;-72
2022/12/08 05:25:48;;;;;;;13.63;7.40;;;;;;;2.05;100.00;100299.31;6226290;28;20061;-72
2022/12/08 05:28:49;;;;;;;8.68;4.93;;;;;;;2.03;100.00;100294.16;6226170;28;20056;-73
2022/12/08 05:31:51;;;;;;;8.57;6.10;;;;;;;2.00;100.00;100287.34;6226252;28;20046;-72
2022/12/08 05:34:52;;;;;;;12.50;6.05;;;;;;;2.02;100.00;100295.91;6225866;28;20069;-72
2022/12/08 05:37:55;;;;;;;14.88;7.65;;;;;;;2.05;100.00;100295.00;6226135;28;20049;-73
2022/12/08 05:40:56;;;;;;;13.10;7.95;;;;;;;2.08;100.00;100294.03;6225690;28;20049;-71
2022/12/08 05:43:58;;;;;;;11.13;6.47;;;;;;;2.08;100.00;100287.13;6225957;28;20054;-73
2022/12/08 05:47:00;;;;;;;11.32;6.07;;;;;;;2.08;100.00;100289.72;6218553;28;20050;-72
2022/12/08 05:50:01;;;;;;;11.13;6.55;;;;;;;2.10;100.00;100279.31;6211346;28;20050;-72
2022/12/08 05:53:04;;;;;;;12.32;6.47;;;;;;;2.09;100.00;100278.47;6224656;28;20053;-71
2022/12/08 05:56:06;;;;;;;14.60;6.78;;;;;;;2.09;100.00;100275.00;6223699;28;20057;-71
2022/12/08 05:59:07;;;;;;;12.88;6.78;;;;;;;2.03;100.00;100271.69;6211129;28;20658;-71
2022/12/08 06:02:09;;;;;;;11.27;6.13;;;;;;;2.06;100.00;100260.41;6217558;28;20049;-71
2022/12/08 06:05:10;;;;;;;10.80;5.93;;;;;;;2.07;100.00;100263.84;6225402;28;20049;-72
2022/12/08 06:08:14;;;;;;;11.70;5.57;;;;;;;2.09;100.00;100275.88;6225334;28;20061;-72
2022/12/08 06:11:19;;;;;;;14.18;5.53;;;;;;;2.09;100.00;100267.22;6225296;28;20057;-72
2022/12/08 06:14:20;;;;;;;10.57;5.50;;;;;;;2.10;100.00;100274.13;6224982;28;20046;-73
2022/12/08 06:17:22;;;;;;;11.98;6.65;;;;;;;2.10;100.00;100264.63;6225243;28;20054;-73
2022/12/08 06:20:23;;;;;;;10.27;5.97;;;;;;;2.14;100.00;100265.41;6224772;28;20099;-72
2022/12/08 06:23:26;;;;;;;12.13;6.05;;;;;;;2.14;100.00;100278.34;6225186;28;20049;-71
2022/12/08 06:26:27;;;;;;;8.73;5.95;;;;;;;2.11;100.00;100276.69;6224699;28;20049;-73
2022/12/08 06:29:29;;;;;;;9.10;5.57;;;;;;;2.20;100.00;100283.38;6224894;28;20064;-72
2022/12/08 06:32:30;;;;;;;8.45;5.03;;;;;;;2.16;100.00;100285.19;6224643;28;20061;-72
2022/12/08 06:35:32;;;;;;;10.73;6.80;;;;;;;2.17;100.00;100288.63;6224357;28;20521;-72
2022/12/08 06:38:34;;;;;;;9.95;5.97;;;;;;;2.13;100.00;100281.81;6224659;28;20056;-71
2022/12/08 06:42:42;;;;;;;7.13;4.72;;;;;;;2.16;100.00;100282.59;6224277;28;20050;-73
2022/12/08 06:44:58;;;;;;;8.45;5.65;;;;;;;2.13;100.00;100287.00;6224043;28;20105;-72
2022/12/08 06:48:01;;;;;;;9.32;5.35;;;;;;;2.14;100.00;100283.53;6224307;28;20061;-72
2022/12/08 06:51:07;;;;;;;10.02;5.45;;;;;;;2.11;100.00;100287.06;6224183;28;20057;-73
2022/12/08 06:54:10;;;;;;;13.90;5.43;;;;;;;2.10;100.00;100295.72;6223972;28;20084;-72
2022/12/08 06:57:11;;;;;;;10.52;5.50;;;;;;;2.11;100.00;100289.63;6224318;28;20060;-73
2022/12/08 07:00:14;;;;;;;7.53;5.03;;;;;;;2.10;100.00;100293.13;6223647;28;20065;-72
2022/12/08 07:03:15;;;;;;;8.68;5.32;;;;;;;2.00;100.00;100294.25;6224248;28;20050;-74
2022/12/08 07:06:22;;;;;;;9.85;5.80;;;;;;;2.02;100.00;100298.50;6223837;28;20509;-73
2022/12/08 07:09:24;;;;;;;7.95;5.03;;;;;;;2.02;100.00;100308.03;6223956;28;20077;-73
2022/12/08 07:12:26;;;;;;;7.88;5.10;;;;;;;1.99;100.00;100311.53;6223579;28;20049;-73
2022/12/08 07:15:28;;;;;;;7.85;4.65;;;;;;;2.06;100.00;100314.84;6222865;28;20054;-73
2022/12/08 07:18:29;;;;;;;8.68;4.72;;;;;;;2.01;100.00;100316.69;6223837;28;20060;-73
2022/12/08 07:21:30;;;;;;;11.05;5.30;;;;;;;1.97;100.00;100318.50;6223547;28;20406;-71
2022/12/08 07:24:33;;;;;;;11.63;5.25;;;;;;;2.01;100.00;100314.09;6223591;28;20513;-72
2022/12/08 07:27:35;;;;;;;10.75;5.55;;;;;;;1.93;100.00;100319.47;6223510;28;20050;-72
2022/12/08 07:30:36;;;;;;;7.72;4.43;;;;;;;1.93;100.00;100316.03;6223444;28;20054;-72
2022/12/08 07:33:38;;;;;;;7.35;4.88;;;;;;;1.94;100.00;100313.38;6223505;28;20046;-73
2022/12/08 07:36:39;;;;;;;8.55;4.85;;;;;;;2.02;100.00;100326.16;6223535;28;20053;-72
2022/12/08 07:39:43;;;;;;;7.75;4.07;;;;;;;2.00;100.00;100318.44;6223089;28;20169;-71
2022/12/08 07:42:44;;;;;;;9.68;4.80;;;;;;;1.97;100.00;100317.66;6223073;28;20517;-72
2022/12/08 07:45:46;;;;;;;8.85;4.50;;;;;;;1.93;100.00;100322.06;6222945;28;20056;-73
2022/12/08 07:48:48;;;;;;;9.52;5.65;;;;;;;1.92;100.00;100315.19;6223255;28;20049;-73
2022/12/08 07:51:49;;;;;;;8.13;5.28;;;;;;;1.90;100.00;100319.53;6222920;28;20050;-73
2022/12/08 07:54:52;;;;;;;12.13;6.07;;;;;;;1.90;100.00;100316.94;6222787;28;20046;-73
2022/12/08 07:57:53;;;;;;;11.88;7.30;;;;;;;1.99;100.00;100321.03;6222986;28;20052;-73
2022/12/08 08:00:55;;;;;;;10.32;6.38;;;;;;;1.98;100.00;100312.41;6223016;28;20056;-73
2022/12/08 08:04:00;;;;;;;13.98;5.82;;;;;;;1.98;100.00;100317.59;6223186;28;20049;-73
2022/12/08 08:07:01;;;;;;;9.23;5.20;;;;;;;2.00;100.00;100320.19;6222852;28;20549;-73
2022/12/08 08:10:06;;;;;;;10.43;6.10;;;;;;;2.05;100.00;100314.88;6222623;28;20057;-72
2022/12/08 08:13:08;;;;;;;9.68;5.65;;;;;;;2.09;100.00;100319.94;6222404;28;20050;-73
2022/12/08 08:16:12;;;;;;;9.25;6.05;;;;;;;2.06;100.00;100317.41;6222616;28;20061;-73
2022/12/08 08:19:13;;;;;;;11.15;5.60;;;;;;;2.11;100.00;100314.72;6222442;28;20493;-73
2022/12/08 08:22:15;;;;;;;13.68;5.78;;;;;;;2.07;100.00;100316.53;6222412;28;20052;-72
2022/12/08 08:25:19;;;;;;;8.52;4.57;;;;;;;2.08;100.00;100319.97;6222191;28;20056;-72
2022/12/08 08:28:20;;;;;;;8.35;5.15;;;;;;;2.11;100.00;100327.66;6222355;28;20054;-72
2022/12/08 08:31:24;;;;;;;9.48;4.65;;;;;;;2.11;100.00;100333.69;6222600;28;20462;-73
2022/12/08 08:34:25;;;;;;;12.20;5.63;;;;;;;2.08;100.00;100343.28;6222493;28;20513;-73
2022/12/08 08:37:27;;;;;;;11.32;5.65;;;;;;;2.09;100.00;100344.97;6222258;28;20046;-73
2022/12/08 08:40:30;;;;;;;12.70;5.68;;;;;;;2.09;100.00;100339.78;6222002;28;20050;-73
2022/12/08 08:43:31;;;;;;;11.18;5.68;;;;;;;2.10;100.00;100337.19;6222355;28;20049;-73
2022/12/08 08:46:33;;;;;;;9.23;5.40;;;;;;;2.08;100.00;100331.19;6221964;28;20050;-73
2022/12/08 08:49:35;;;;;;;12.48;5.57;;;;;;;2.14;100.00;100318.09;6222192;28;20062;-73
2022/12/08 08:52:36;;;;;;;10.90;5.88;;;;;;;2.13;100.00;100315.50;6221974;28;20045;-72
2022/12/08 08:55:40;;;;;;;8.20;4.68;;;;;;;2.09;100.00;100319.06;6221815;28;20489;-72
2022/12/08 08:58:41;;;;;;;14.77;5.50;;;;;;;2.15;100.00;100321.53;6221797;28;20085;-72
2022/12/08 09:01:43;;;;;;;8.35;4.88;;;;;;;2.18;100.00;100330.06;6260014;23;20064;-71
2022/12/08 09:04:45;;;;;;;8.45;4.85;;;;;;;2.19;100.00;100339.53;6221402;28;20046;-70
2022/12/08 09:07:46;;;;;;;8.40;5.00;;;;;;;2.19;100.00;100336.09;6221814;28;20053;-71
2022/12/08 09:10:49;;;;;;;8.38;5.10;;;;;;;2.21;100.00;100327.38;6221324;28;20437;-72
2022/12/08 09:13:51;;;;;;;6.53;4.10;;;;;;;2.19;100.00;100336.97;6221415;28;20448;-71
2022/12/08 09:16:53;;;;;;;13.68;6.47;;;;;;;2.28;100.00;100341.91;6221755;28;20096;-71
2022/12/08 09:19:54;;;;;;;7.68;3.80;;;;;;;2.36;100.00;100335.66;6221714;28;20065;-70
2022/12/08 09:22:56;;;;;;;9.95;5.13;;;;;;;2.33;100.00;100339.19;6221672;28;20057;-71
2022/12/08 09:25:59;;;;;;;7.22;4.32;;;;;;;2.40;100.00;100348.50;6221688;28;20386;-71
2022/12/08 09:29:00;;;;;;;7.72;4.65;;;;;;;2.39;100.00;100349.41;6221610;28;20054;-71
2022/12/08 09:32:01;;;;;;;6.75;4.03;;;;;;;2.34;100.00;100343.47;6221593;28;20054;-70
2022/12/08 09:35:03;;;;;;;7.97;4.95;;;;;;;2.41;100.00;100358.00;6221437;28;20041;-72
2022/12/08 09:38:05;;;;;;;7.63;4.20;;;;;;;2.41;100.00;100351.97;6223601;28;20399;-71
2022/12/08 09:41:16;;;;;;;8.57;4.47;;;;;;;2.43;100.00;100348.44;6225884;28;20520;-71
2022/12/08 09:44:44;;;;;;;8.77;4.45;;;;;;;2.39;100.00;100351.13;6225798;28;20046;-71
2022/12/08 09:47:52;;;;;;;11.27;5.07;;;;;;;2.44;100.00;100349.28;6225867;28;20056;-71
2022/12/08 09:50:56;;;;;;;9.23;4.60;;;;;;;2.43;100.00;100340.66;6225912;28;20057;-71
2022/12/08 09:54:03;;;;;;;5.78;4.15;;;;;;;2.45;100.00;100346.66;6225544;28;20129;-72
2022/12/08 09:57:13;;;;;;;9.13;4.05;;;;;;;2.48;100.00;100348.31;6225826;28;20049;-72
2022/12/08 10:00:16;;;;;;;8.45;4.85;;;;;;;2.51;100.00;100346.50;6225140;28;20525;-72
2022/12/08 10:03:18;;;;;;;5.70;3.78;;;;;;;2.52;100.00;100355.97;6225796;28;20050;-71
2022/12/08 10:06:25;;;;;;;14.20;5.60;;;;;;;2.53;100.00;100343.84;6225525;28;20049;-72
2022/12/08 10:09:34;;;;;;;7.28;4.32;;;;;;;2.49;100.00;100350.00;6225376;28;20057;-70
2022/12/08 10:12:45;;;;;;;8.60;5.22;;;;;;;2.57;100.00;100339.44;6225287;28;20054;-72
2022/12/08 10:15:52;;;;;;;7.18;4.25;;;;;;;2.54;100.00;100338.63;6225184;28;20050;-71
2022/12/08 10:19:01;;;;;;;7.07;4.00;;;;;;;2.56;100.00;100340.31;6225823;28;20053;-72
2022/12/08 10:22:17;;;;;;;7.45;4.43;;;;;;;2.58;100.00;100346.31;6225086;28;20082;-71
2022/12/08 10:25:20;;;;;;;8.38;4.53;;;;;;;2.60;100.00;100344.53;6224713;28;20073;-71
2022/12/08 10:28:23;;;;;;;7.65;4.57;;;;;;;2.70;100.00;100339.03;6225119;28;20045;-72
2022/12/08 10:31:26;;;;;;;6.20;4.20;;;;;;;2.61;100.00;100336.72;6224620;28;20425;-70
2022/12/08 10:34:27;;;;;;;9.27;4.63;;;;;;;2.63;100.00;100334.91;6224716;28;20046;-72
2022/12/08 10:37:29;;;;;;;10.70;4.65;;;;;;;2.67;100.00;100338.28;6224807;28;20096;-71
2022/12/08 10:40:36;;;;;;;11.23;5.07;;;;;;;2.64;100.00;100333.19;6224292;28;20049;-71
2022/12/08 10:43:43;;;;;;;6.55;4.13;;;;;;;2.66;100.00;100339.19;6224722;28;20053;-71
2022/12/08 10:46:45;;;;;;;7.40;4.13;;;;;;;2.61;100.00;100334.13;6224386;28;20057;-71
2022/12/08 10:49:46;;;;;;;7.05;4.15;;;;;;;2.64;100.00;100322.81;6224289;28;20054;-72
2022/12/08 10:52:55;;;;;;;7.90;4.25;;;;;;;2.70;100.00;100325.22;6224407;28;20508;-71
2022/12/08 10:56:06;;;;;;;;;;;;;;;2.69;100.00;100326.97;6224849;28;20057;-71
2022/12/08 10:59:15;;;;;;;5.75;3.17;;;;;;;2.70;100.00;100320.03;6224216;28;19929;-71
2022/12/08 11:02:19;;;;;;;6.18;3.60;;;;;;;2.78;100.00;100315.50;6223896;28;20050;-71
2022/12/08 11:05:23;;;;;;;4.57;2.63;;;;;;;2.80;100.00;100311.94;6223895;28;20050;-71
2022/12/08 11:08:25;;;;;;;6.20;3.20;;;;;;;2.80;100.00;100308.50;6223897;28;20421;-71
2022/12/08 11:11:38;;;;;;;5.90;2.85;;;;;;;2.79;100.00;100306.81;6223649;28;20509;-71
2022/12/08 11:14:50;;;;;;;5.93;3.42;;;;;;;2.82;100.00;100322.31;6223911;28;20050;-71
2022/12/08 11:18:01;;;;;;;5.80;3.30;;;;;;;2.84;100.00;100315.31;6223701;28;20424;-72
2022/12/08 11:21:10;;;;;;;5.75;3.42;;;;;;;2.84;100.00;100320.50;6223519;28;20505;-72
2022/12/08 11:24:23;;;;;;;8.65;3.42;;;;;;;2.76;100.00;100322.44;6223428;28;20073;-71
2022/12/08 11:27:26;;;;;;;5.85;3.30;;;;;;;2.85;100.00;100323.94;6223671;28;20061;-71
2022/12/08 11:30:32;;;;;;;4.50;2.72;;;;;;;2.86;100.00;100316.13;6223190;28;20053;-71
2022/12/08 11:33:34;;;;;;;5.63;3.00;;;;;;;2.80;100.00;100324.91;6223368;28;20406;-71
2022/12/08 11:36:38;;;;;;;7.10;2.95;;;;;;;2.87;100.00;100328.22;6223123;28;20046;-71
2022/12/08 11:39:46;;;;;;;4.00;2.75;;;;;;;2.88;100.00;100323.88;6223314;28;20060;-71
2022/12/08 11:42:56;;;;;;;5.03;3.08;;;;;;;2.90;100.00;100322.06;6223168;28;20524;-72
2022/12/08 11:46:01;;;;;;;3.83;2.35;;;;;;;2.90;100.00;100328.09;6223127;28;20050;-71
2022/12/08 11:49:06;;;;;;;3.58;2.53;;;;;;;2.90;100.00;100320.31;6223097;28;20517;-71
2022/12/08 11:52:20;;;;;;;4.25;2.47;;;;;;;2.90;100.00;100327.25;6222892;28;20050;-71
2022/12/08 11:55:32;;;;;;;5.55;2.97;;;;;;;2.94;100.00;100324.53;6198078;28;20047;-71
2022/12/08 11:58:38;;;;;;;3.67;2.28;;;;;;;2.99;100.00;100324.41;6213728;28;20046;-71
2022/12/08 12:01:41;;;;;;;3.47;2.00;;;;;;;2.96;100.00;100322.75;6216197;28;20058;-72
2022/12/08 12:04:49;;;;;;;4.05;2.15;;;;;;;2.95;100.00;100334.03;6198424;28;20047;-70
2022/12/08 12:08:03;;;;;;;3.13;2.53;;;;;;;2.97;100.00;100329.63;6198126;28;20058;-71
2022/12/08 12:12:11;;;;;;;4.55;2.83;;;;;;;2.92;100.00;100321.13;6198255;28;20288;-71
2022/12/08 12:14:52;;;;;;;3.10;1.98;;;;;;;2.98;100.00;100325.28;6197822;28;20082;-70
2022/12/08 12:17:58;;;;;;;2.78;1.92;;;;;;;2.96;100.00;100324.50;6198019;28;20080;-71
2022/12/08 12:21:06;;;;;;;3.10;1.92;;;;;;;2.94;100.00;100327.13;6198271;28;20054;-72
2022/12/08 12:24:10;;;;;;;2.30;1.48;;;;;;;2.84;100.00;100320.50;6197729;28;20414;-72
2022/12/08 12:27:23;;;;;;;1.77;1.52;;;;;;;2.90;100.00;100329.84;6198269;28;20057;-71
2022/12/08 12:30:27;;;;;;;1.88;1.35;;;;;;;2.91;100.00;100324.63;6197730;28;20497;-71
2022/12/08 12:33:31;;;;;;;9.85;2.15;;;;;;;2.95;100.00;100326.25;6198045;28;20086;-70
2022/12/08 12:36:46;;;;;;;4.90;2.22;;;;;;;2.93;100.00;100319.38;6197544;28;20050;-71
2022/12/08 12:39:54;;;;;;;4.90;2.28;;;;;;;2.95;100.00;100320.19;6197534;28;20424;-72
2022/12/08 12:43:27;;;;;;;5.43;2.03;;;;;;;2.91;100.00;100329.81;6197919;28;20050;-71
2022/12/08 12:46:42;;;;;;;4.10;1.38;;;;;;;2.89;100.00;100325.56;6197906;28;20070;-71
2022/12/08 12:50:07;;;;;;;3.03;1.65;;;;;;;2.85;100.00;100331.72;6198058;28;20505;-70
2022/12/08 12:53:49;;;;;;;3.17;1.80;;;;;;;2.78;100.00;100328.47;6197584;28;20502;-71
2022/12/08 12:56:53;;;;;;;3.70;2.60;;;;;;;2.81;100.00;100325.75;6197898;28;20065;-71
2022/12/08 13:00:18;;;;;;;7.60;2.05;;;;;;;2.77;100.00;100324.16;6197194;28;20425;-72
2022/12/08 13:03:19;;;;;;;2.92;1.75;;;;;;;2.76;100.00;100322.44;6197763;28;20054;-71
2022/12/08 13:06:24;;;;;;;3.45;1.90;;;;;;;2.83;100.00;100325.75;6197242;28;20046;-71
2022/12/08 13:09:34;;;;;;;3.25;2.10;;;;;;;2.80;100.00;100319.72;6197575;28;20070;-70
2022/12/08 13:12:36;;;;;;;2.78;1.38;;;;;;;2.85;100.00;100322.19;6198886;28;20058;-71
2022/12/08 13:15:40;;;;;;;6.97;1.88;;;;;;;2.83;100.00;100307.59;6201992;28;20490;-71
2022/12/08 13:18:46;;;;;;;2.55;1.90;;;;;;;2.78;100.00;100313.75;6202189;28;20513;-71
2022/12/08 13:21:47;;;;;;;1.95;1.50;;;;;;;2.77;100.00;100304.28;6202005;28;20057;-72
2022/12/08 13:24:50;;;;;;;2.25;1.60;;;;;;;2.75;100.00;100302.59;6201862;28;20057;-71
2022/12/08 13:27:53;;;;;;;2.67;1.70;;;;;;;2.75;100.00;100307.78;6202038;28;20426;-72
2022/12/08 13:30:56;;;;;;;2.90;2.38;;;;;;;2.80;100.00;100303.31;6201687;28;20042;-72
2022/12/08 13:33:58;;;;;;;3.55;1.75;;;;;;;2.77;100.00;100304.28;6201818;28;20050;-72
2022/12/08 13:37:12;;;;;;;4.13;1.77;;;;;;;2.76;100.00;100307.72;6201735;28;20517;-72
2022/12/08 13:40:20;;;;;;;4.60;2.53;;;;;;;2.76;100.00;100306.88;6201688;28;20057;-71
2022/12/08 13:43:32;;;;;;;4.55;1.65;;;;;;;2.69;100.00;100307.97;6201794;28;20057;-71
2022/12/08 13:46:38;;;;;;;5.88;2.38;;;;;;;2.68;100.00;100301.06;6201604;28;20057;-71
2022/12/08 13:49:49;;;;;;;2.85;1.65;;;;;;;2.66;100.00;100305.44;6201414;28;20054;-70
2022/12/08 13:52:55;;;;;;;3.55;2.05;;;;;;;2.64;100.00;100302.06;6201307;28;20426;-71
2022/12/08 13:56:00;;;;;;;3.13;1.60;;;;;;;2.60;100.00;100310.81;6201022;28;20074;-72
2022/12/08 13:59:08;;;;;;;3.65;2.22;;;;;;;2.60;100.00;100313.41;6201524;28;20043;-71
2022/12/08 14:02:17;;;;;;;3.70;1.58;;;;;;;2.59;100.00;100316.88;6200772;28;20054;-71
2022/12/08 14:05:21;;;;;;;4.75;2.22;;;;;;;2.57;100.00;100316.09;6200923;28;20545;-71
2022/12/08 14:08:30;;;;;;;5.05;2.75;;;;;;;2.51;100.00;100320.56;6201030;28;20062;-71
2022/12/08 14:11:37;;;;;;;7.90;1.97;;;;;;;2.51;100.00;100325.75;6201008;28;20054;-71
2022/12/08 14:14:41;;;;;;;8.02;2.78;;;;;;;2.52;100.00;100319.66;6200700;28;20308;-71
2022/12/08 14:17:51;;;;;;;12.13;2.10;;;;;;;2.54;100.00;100330.84;6200991;28;20054;-71
2022/12/08 14:21:00;;;;;;;2.50;1.88;;;;;;;2.51;100.00;100328.34;6200616;28;20081;-72
2022/12/08 14:24:02;;;;;;;3.28;2.00;;;;;;;2.53;100.00;100331.72;6200346;28;20056;-71
2022/12/08 14:27:09;;;;;;;5.95;2.78;;;;;;;2.53;100.00;100334.31;6200761;28;20046;-72